Time;durP1;ratioP1;P1;durP2;ratioP2;P2;SDS_P1;SDS_P2;PMS_P1;PMS_P2;Temp;Humidity;BMP_temperature;BMP_pressure;BME280_temperature;BME280_humidity;BME280_pressure;Samples;Min_cycle;Max_cycle;Signal;HPM_P1;HPM_P2
2023/07/05 00:00:43;;;;;;;6.78;5.47;;;20.30;99.90;;;;;;5073651;28;20238;-75
2023/07/05 00:03:10;;;;;;;6.82;5.70;;;20.40;99.90;;;;;;5073604;28;20255;-69
2023/07/05 00:05:38;;;;;;;6.63;5.00;;;20.30;99.90;;;;;;5074157;28;20713;-71
2023/07/05 00:08:06;;;;;;;8.23;5.72;;;20.30;99.90;;;;;;5072978;28;20722;-71
2023/07/05 00:10:34;;;;;;;6.75;5.07;;;20.30;99.90;;;;;;5073566;28;20704;-70
2023/07/05 00:13:01;;;;;;;6.78;5.20;;;20.30;99.90;;;;;;5065913;28;20254;-72
2023/07/05 00:15:28;;;;;;;7.88;5.13;;;20.30;99.90;;;;;;5073686;28;20218;-75
2023/07/05 00:17:55;;;;;;;6.22;5.40;;;20.30;99.90;;;;;;5069548;28;20211;-71
2023/07/05 00:20:23;;;;;;;6.45;5.43;;;20.20;99.90;;;;;;5069859;28;20556;-74
2023/07/05 00:22:50;;;;;;;5.90;5.18;;;20.10;99.90;;;;;;5073491;28;20207;-74
2023/07/05 00:25:18;;;;;;;7.60;4.82;;;20.10;99.90;;;;;;5071435;28;20237;-73
2023/07/05 00:27:45;;;;;;;6.50;5.88;;;20.10;99.90;;;;;;5063406;28;20215;-70
2023/07/05 00:30:12;;;;;;;4.97;4.47;;;20.10;99.90;;;;;;5068684;28;20270;-75
2023/07/05 00:32:39;;;;;;;6.65;5.22;;;20.00;99.90;;;;;;5073338;28;20693;-71
2023/07/05 00:35:07;;;;;;;8.05;5.47;;;20.00;99.90;;;;;;5072998;28;20238;-74
2023/07/05 00:37:34;;;;;;;5.82;4.57;;;20.00;99.90;;;;;;5073104;28;20689;-73
2023/07/05 00:40:00;;;;;;;8.75;5.50;;;19.90;99.90;;;;;;5073205;28;20263;-74
2023/07/05 00:42:29;;;;;;;7.72;5.50;;;19.90;99.90;;;;;;5073235;28;20256;-72
2023/07/05 00:45:49;;;;;;;7.35;4.93;;;19.90;99.90;;;;;;5073780;28;20233;-74
2023/07/05 00:48:18;;;;;;;5.82;5.22;;;19.80;99.90;;;;;;5072707;28;20228;-73
2023/07/05 00:50:49;;;;;;;8.18;5.97;;;19.90;99.90;;;;;;5072759;28;20234;-71
2023/07/05 00:53:18;;;;;;;7.25;5.07;;;20.00;99.90;;;;;;5063377;28;20239;-70
2023/07/05 00:55:49;;;;;;;6.35;4.97;;;19.90;99.90;;;;;;5068547;28;20256;-72
2023/07/05 00:58:18;;;;;;;5.63;4.85;;;19.80;99.90;;;;;;5072404;28;20244;-74
2023/07/05 01:00:46;;;;;;;7.22;4.93;;;19.80;99.90;;;;;;5072747;28;20336;-73
2023/07/05 01:03:20;;;;;;;7.75;4.93;;;19.70;99.90;;;;;;5072506;28;20678;-69
2023/07/05 01:05:49;;;;;;;5.25;4.72;;;19.70;99.90;;;;;;5072567;28;20206;-72
2023/07/05 01:08:16;;;;;;;5.72;4.90;;;19.70;99.90;;;;;;5072139;28;20233;-72
2023/07/05 01:10:53;;;;;;;5.72;5.07;;;19.70;99.90;;;;;;5072808;28;20299;-73
2023/07/05 01:13:28;;;;;;;8.30;5.45;;;19.70;99.90;;;;;;5072125;28;20241;-73
2023/07/05 01:16:05;;;;;;;5.30;4.35;;;19.60;99.90;;;;;;5073064;28;20248;-73
2023/07/05 01:18:40;;;;;;;7.00;4.78;;;19.60;99.90;;;;;;5072615;28;20238;-74
2023/07/05 01:21:14;;;;;;;5.03;4.45;;;19.70;99.90;;;;;;5072090;28;20218;-72
2023/07/05 01:24:15;;;;;;;5.93;5.28;;;19.70;99.90;;;;;;5072087;28;20686;-73
2023/07/05 01:26:59;;;;;;;5.97;5.30;;;19.60;99.90;;;;;;5053515;28;20234;-74
2023/07/05 01:29:56;;;;;;;6.03;4.75;;;19.70;99.90;;;;;;5064004;28;20273;-74
2023/07/05 01:32:29;;;;;;;4.05;3.72;;;19.70;99.90;;;;;;5071849;28;20764;-72
2023/07/05 01:35:00;;;;;;;4.80;4.38;;;19.70;99.90;;;;;;5072661;28;20206;-74
2023/07/05 01:37:34;;;;;;;6.75;4.60;;;19.60;99.90;;;;;;5072098;28;20206;-74
2023/07/05 01:40:11;;;;;;;4.75;4.35;;;19.60;99.90;;;;;;5072025;28;20211;-74
2023/07/05 01:42:39;;;;;;;5.22;4.68;;;19.50;99.90;;;;;;5071890;28;20689;-74
2023/07/05 01:45:07;;;;;;;5.45;4.38;;;19.50;99.90;;;;;;5071534;28;20249;-69
2023/07/05 01:47:42;;;;;;;5.25;4.75;;;19.50;99.90;;;;;;5072002;28;20257;-73
2023/07/05 01:50:20;;;;;;;6.45;4.22;;;19.50;99.90;;;;;;5071583;28;20276;-69
2023/07/05 01:52:54;;;;;;;6.80;4.75;;;19.40;99.90;;;;;;5071865;28;20244;-74
2023/07/05 01:55:28;;;;;;;5.35;4.43;;;19.40;99.90;;;;;;5071201;28;20292;-74
2023/07/05 01:58:00;;;;;;;5.43;4.90;;;19.40;99.90;;;;;;5071747;28;20736;-74
2023/07/05 02:00:29;;;;;;;5.85;5.15;;;19.30;99.90;;;;;;5066882;28;20666;-73
2023/07/05 02:03:01;;;;;;;9.45;5.18;;;19.40;99.90;;;;;;5071915;28;20229;-74
2023/07/05 02:05:30;;;;;;;5.78;5.15;;;19.30;99.90;;;;;;5071743;28;20660;-70
2023/07/05 02:07:59;;;;;;;4.75;4.35;;;19.30;99.90;;;;;;5071699;28;20230;-74
2023/07/05 02:10:26;;;;;;;5.63;5.07;;;19.30;99.90;;;;;;5064717;28;20245;-69
2023/07/05 02:12:54;;;;;;;5.35;4.70;;;19.20;99.90;;;;;;5071381;28;20234;-72
2023/07/05 02:15:21;;;;;;;5.38;4.43;;;19.10;99.90;;;;;;5071107;28;20238;-74
2023/07/05 02:17:48;;;;;;;7.97;5.20;;;19.10;99.90;;;;;;5070970;28;20230;-74
2023/07/05 02:20:17;;;;;;;5.93;4.63;;;19.10;99.90;;;;;;5070919;28;20238;-70
2023/07/05 02:22:44;;;;;;;6.00;4.80;;;19.00;99.90;;;;;;5071356;28;20245;-72
2023/07/05 02:25:11;;;;;;;6.70;5.78;;;19.10;99.90;;;;;;5070399;28;20252;-74
2023/07/05 02:27:38;;;;;;;6.15;4.88;;;19.10;99.90;;;;;;5060222;28;20674;-69
2023/07/05 02:30:09;;;;;;;6.32;5.13;;;19.10;99.90;;;;;;5067919;28;20237;-74
2023/07/05 02:32:36;;;;;;;5.47;4.90;;;19.00;99.90;;;;;;5071043;28;20214;-74
2023/07/05 02:35:03;;;;;;;9.20;5.95;;;19.00;99.90;;;;;;5070702;28;20234;-70
2023/07/05 02:37:33;;;;;;;5.70;4.80;;;19.00;99.90;;;;;;5071304;28;20647;-71
2023/07/05 02:40:00;;;;;;;5.88;5.30;;;19.00;99.90;;;;;;5070648;28;20237;-74
2023/07/05 02:42:28;;;;;;;5.45;4.78;;;19.10;99.90;;;;;;5071449;28;20261;-74
2023/07/05 02:44:56;;;;;;;5.60;4.50;;;19.00;99.90;;;;;;5071244;28;20644;-71
2023/07/05 02:47:23;;;;;;;5.57;4.97;;;19.00;99.90;;;;;;5070467;28;20297;-74
2023/07/05 02:49:50;;;;;;;7.18;4.40;;;19.00;99.90;;;;;;5070754;28;20269;-73
2023/07/05 02:52:17;;;;;;;9.30;4.95;;;18.90;99.90;;;;;;5070422;28;20240;-70
2023/07/05 02:54:45;;;;;;;6.57;4.25;;;19.00;99.90;;;;;;5070671;28;20249;-70
2023/07/05 02:57:12;;;;;;;6.53;5.05;;;19.00;99.90;;;;;;5070367;28;20241;-73
2023/07/05 02:59:39;;;;;;;6.70;5.03;;;19.00;99.90;;;;;;5070504;28;20301;-73
2023/07/05 03:02:06;;;;;;;6.88;6.00;;;19.00;99.90;;;;;;5070275;28;20214;-73
2023/07/05 03:04:33;;;;;;;7.18;4.70;;;19.00;99.90;;;;;;5071098;28;20233;-74
2023/07/05 03:07:00;;;;;;;5.85;4.38;;;19.00;99.90;;;;;;5070889;28;20238;-70
2023/07/05 03:09:27;;;;;;;6.47;4.40;;;19.00;99.90;;;;;;5069808;28;20712;-74
2023/07/05 03:11:55;;;;;;;5.70;5.20;;;18.90;99.90;;;;;;5070751;28;20662;-70
2023/07/05 03:14:22;;;;;;;7.22;4.47;;;18.90;99.90;;;;;;5069893;28;20242;-74
2023/07/05 03:16:49;;;;;;;4.68;4.13;;;18.90;99.90;;;;;;5070925;28;20680;-74
2023/07/05 03:19:16;;;;;;;6.03;5.43;;;18.90;99.90;;;;;;5070152;28;20252;-74
2023/07/05 03:21:44;;;;;;;6.55;4.55;;;18.90;99.90;;;;;;5070652;28;20241;-74
2023/07/05 03:24:11;;;;;;;6.10;5.07;;;18.90;99.90;;;;;;5069672;28;20253;-71
2023/07/05 03:26:38;;;;;;;4.97;4.45;;;18.90;99.90;;;;;;5067652;28;20241;-75
2023/07/05 03:29:06;;;;;;;5.03;4.53;;;18.90;99.90;;;;;;5061210;28;20241;-69
2023/07/05 03:31:33;;;;;;;6.90;4.93;;;18.90;99.90;;;;;;5074330;28;20269;-74
2023/07/05 03:34:00;;;;;;;6.05;4.18;;;18.90;99.90;;;;;;5074401;28;20687;-70
2023/07/05 03:36:27;;;;;;;7.88;4.65;;;18.90;99.90;;;;;;5074973;28;20210;-74
2023/07/05 03:38:54;;;;;;;5.07;4.57;;;18.90;99.90;;;;;;5074100;28;20241;-74
2023/07/05 03:41:22;;;;;;;6.63;4.50;;;18.80;99.90;;;;;;5073972;28;20647;-70
2023/07/05 03:43:53;;;;;;;5.60;4.32;;;18.80;99.90;;;;;;5074198;28;20597;-69
2023/07/05 03:46:21;;;;;;;5.88;4.95;;;18.80;99.90;;;;;;5074224;28;20680;-74
2023/07/05 03:48:48;;;;;;;5.50;4.78;;;18.80;99.90;;;;;;5073912;28;20230;-73
2023/07/05 03:51:18;;;;;;;6.25;5.10;;;18.70;99.90;;;;;;5073681;28;20324;-73
2023/07/05 03:53:48;;;;;;;6.70;5.13;;;18.60;99.90;;;;;;5073965;28;20759;-70
2023/07/05 03:56:16;;;;;;;6.95;5.18;;;18.60;99.90;;;;;;5073740;28;20237;-70
2023/07/05 03:58:44;;;;;;;4.80;4.32;;;18.70;99.90;;;;;;5073934;28;20207;-74
2023/07/05 04:01:14;;;;;;;5.20;4.70;;;18.60;99.90;;;;;;5073678;28;20245;-73
2023/07/05 04:03:42;;;;;;;5.55;4.22;;;18.60;99.90;;;;;;5069184;28;20202;-70
2023/07/05 04:06:10;;;;;;;4.35;3.88;;;18.60;99.90;;;;;;5073363;28;20237;-74
2023/07/05 04:08:37;;;;;;;5.28;4.25;;;18.60;99.90;;;;;;5073265;28;20233;-70
2023/07/05 04:11:04;;;;;;;6.03;4.68;;;18.60;99.90;;;;;;5063945;28;20316;-70
2023/07/05 04:13:31;;;;;;;6.97;4.63;;;18.60;99.90;;;;;;5061673;28;20264;-74
2023/07/05 04:15:59;;;;;;;5.80;4.30;;;18.70;99.90;;;;;;5053957;28;20231;-74
2023/07/05 04:18:28;;;;;;;6.22;4.15;;;18.70;99.90;;;;;;5064522;28;20208;-74
2023/07/05 04:20:57;;;;;;;5.72;5.10;;;18.70;99.90;;;;;;5056215;28;20213;-71
2023/07/05 04:23:24;;;;;;;6.50;4.57;;;18.70;99.90;;;;;;5055290;28;20605;-74
2023/07/05 04:25:50;;;;;;;7.40;4.57;;;18.70;99.90;;;;;;5053368;28;20238;-74
2023/07/05 04:28:17;;;;;;;4.88;3.95;;;18.80;99.90;;;;;;5055603;28;20234;-70
2023/07/05 04:30:45;;;;;;;4.82;4.03;;;18.80;99.90;;;;;;5073444;28;20265;-73
2023/07/05 04:33:12;;;;;;;5.78;4.15;;;18.80;99.90;;;;;;5072790;28;20674;-73
2023/07/05 04:35:45;;;;;;;4.72;3.78;;;18.90;99.90;;;;;;5073212;28;20230;-73
2023/07/05 04:38:13;;;;;;;4.53;3.85;;;18.90;99.90;;;;;;5072982;28;20260;-74
2023/07/05 04:40:41;;;;;;;5.45;4.25;;;18.90;99.90;;;;;;5067980;28;20239;-74
2023/07/05 04:43:08;;;;;;;6.47;4.75;;;18.90;99.90;;;;;;5060217;28;20274;-74
2023/07/05 04:45:35;;;;;;;5.50;4.25;;;18.90;99.90;;;;;;5056196;28;20322;-72
2023/07/05 04:48:02;;;;;;;4.85;4.05;;;18.90;99.90;;;;;;5052795;28;20292;-70
2023/07/05 04:50:29;;;;;;;6.68;4.43;;;18.90;99.90;;;;;;5052562;28;20665;-71
2023/07/05 04:52:57;;;;;;;4.63;4.10;;;18.80;99.90;;;;;;5053374;28;20242;-74
2023/07/05 04:55:25;;;;;;;6.93;4.78;;;18.80;99.90;;;;;;5052667;28;20323;-73
2023/07/05 04:57:52;;;;;;;6.00;3.67;;;18.90;99.90;;;;;;5053741;28;20238;-72
2023/07/05 05:00:19;;;;;;;6.30;4.45;;;19.00;99.90;;;;;;5053269;28;20242;-72
2023/07/05 05:02:46;;;;;;;5.57;4.55;;;19.10;99.90;;;;;;5054119;28;20241;-78
2023/07/05 05:05:13;;;;;;;5.43;3.88;;;19.10;99.90;;;;;;5052429;28;20238;-78
2023/07/05 05:07:41;;;;;;;6.25;4.85;;;19.20;99.90;;;;;;5052281;28;20729;-77
2023/07/05 05:10:08;;;;;;;6.05;4.75;;;19.20;99.90;;;;;;5052328;28;20235;-78
2023/07/05 05:12:37;;;;;;;5.72;5.18;;;19.20;99.90;;;;;;5052291;28;20242;-77
2023/07/05 05:15:04;;;;;;;4.45;4.05;;;19.20;99.90;;;;;;5052182;28;20242;-77
2023/07/05 05:17:31;;;;;;;8.00;4.07;;;19.20;99.90;;;;;;5052616;28;20242;-78
2023/07/05 05:19:58;;;;;;;5.47;4.70;;;19.20;99.90;;;;;;5052470;28;20238;-79
2023/07/05 05:22:25;;;;;;;4.93;3.85;;;19.20;99.90;;;;;;5052559;28;20270;-79
2023/07/05 05:24:52;;;;;;;5.88;4.35;;;19.20;99.90;;;;;;5052360;28;20214;-77
2023/07/05 05:27:19;;;;;;;6.82;4.68;;;19.30;99.90;;;;;;5051988;28;20741;-73
2023/07/05 05:29:47;;;;;;;7.10;4.88;;;19.30;99.90;;;;;;5066626;28;20241;-71
2023/07/05 05:32:14;;;;;;;4.80;4.25;;;19.30;99.90;;;;;;5072063;28;20248;-72
2023/07/05 05:34:41;;;;;;;5.50;4.57;;;19.40;99.90;;;;;;5071863;28;20693;-73
2023/07/05 05:37:08;;;;;;;5.07;3.60;;;19.50;99.90;;;;;;5071466;28;20351;-71
2023/07/05 05:39:35;;;;;;;4.97;4.20;;;19.50;99.90;;;;;;5072304;28;20299;-72
2023/07/05 05:42:02;;;;;;;5.15;4.68;;;19.50;99.90;;;;;;5071627;28;20659;-70
2023/07/05 05:44:29;;;;;;;5.22;4.68;;;19.60;99.90;;;;;;5058488;28;20257;-70
2023/07/05 05:46:57;;;;;;;4.70;4.20;;;19.50;99.90;;;;;;5072203;28;20625;-72
2023/07/05 05:49:24;;;;;;;4.15;3.75;;;19.50;99.90;;;;;;5071909;28;20238;-70
2023/07/05 05:51:51;;;;;;;5.78;4.25;;;19.60;99.90;;;;;;5070853;28;20276;-70
2023/07/05 05:54:18;;;;;;;9.45;6.30;;;19.70;99.90;;;;;;5071535;28;20693;-72
2023/07/05 05:56:45;;;;;;;7.05;4.20;;;19.80;99.90;;;;;;5071728;28;20242;-71
2023/07/05 05:59:11;;;;;;;6.35;4.43;;;19.90;99.90;;;;;;5071728;28;20253;-70
2023/07/05 06:01:38;;;;;;;4.35;3.90;;;20.10;99.90;;;;;;5071546;28;20250;-72
2023/07/05 06:04:07;;;;;;;4.85;4.30;;;20.20;99.90;;;;;;5070923;28;20678;-70
2023/07/05 06:06:34;;;;;;;5.63;4.63;;;20.40;99.90;;;;;;5071503;28;20245;-72
2023/07/05 06:09:00;;;;;;;5.07;4.25;;;20.40;99.90;;;;;;5071269;28;20696;-72
2023/07/05 06:11:27;;;;;;;4.65;4.13;;;20.40;99.90;;;;;;5071747;28;20685;-72
2023/07/05 06:13:54;;;;;;;5.45;4.40;;;20.30;99.90;;;;;;5071486;28;20206;-73
2023/07/05 06:16:21;;;;;;;4.60;3.55;;;20.20;99.90;;;;;;5070774;28;20675;-72
2023/07/05 06:18:48;;;;;;;4.22;3.72;;;20.10;99.90;;;;;;5071555;28;20248;-73
2023/07/05 06:21:16;;;;;;;4.85;4.15;;;20.20;99.90;;;;;;5071030;28;20299;-72
2023/07/05 06:23:43;;;;;;;5.00;4.50;;;20.20;99.90;;;;;;5070779;28;20683;-72
2023/07/05 06:26:11;;;;;;;4.57;4.03;;;20.30;99.90;;;;;;5070545;28;20233;-72
2023/07/05 06:28:38;;;;;;;5.88;4.05;;;20.50;99.90;;;;;;5070872;28;20246;-72
2023/07/05 06:31:06;;;;;;;4.30;3.90;;;20.70;99.90;;;;;;5070727;28;20268;-72
2023/07/05 06:33:33;;;;;;;4.63;4.22;;;20.70;99.90;;;;;;5070956;28;20220;-72
2023/07/05 06:36:01;;;;;;;5.22;3.45;;;20.70;99.90;;;;;;5071185;28;20681;-71
2023/07/05 06:38:29;;;;;;;4.13;3.65;;;20.60;99.90;;;;;;5071062;28;20217;-72
2023/07/05 06:40:57;;;;;;;3.70;3.40;;;20.50;99.90;;;;;;5071630;28;20238;-71
2023/07/05 06:43:26;;;;;;;4.85;3.88;;;20.40;99.90;;;;;;5071042;28;20210;-71
2023/07/05 06:45:55;;;;;;;4.88;4.05;;;20.70;99.90;;;;;;5070845;28;20230;-72
2023/07/05 06:48:23;;;;;;;5.03;4.03;;;20.90;99.90;;;;;;5070889;28;20724;-71
2023/07/05 06:50:52;;;;;;;6.72;3.92;;;21.20;99.90;;;;;;5070673;28;20314;-71
2023/07/05 06:53:20;;;;;;;9.27;4.65;;;21.80;99.90;;;;;;5070451;28;20248;-72
2023/07/05 06:55:49;;;;;;;5.38;3.42;;;21.80;99.90;;;;;;5070634;28;20256;-71
2023/07/05 06:58:17;;;;;;;5.13;3.75;;;21.70;99.90;;;;;;5070306;28;20700;-70
2023/07/05 07:00:46;;;;;;;6.13;3.72;;;21.50;99.90;;;;;;5070714;28;20233;-70
2023/07/05 07:03:13;;;;;;;5.10;3.40;;;21.70;99.90;;;;;;5070372;28;20260;-72
2023/07/05 07:05:39;;;;;;;4.20;3.80;;;21.90;99.90;;;;;;5070291;28;20206;-73
2023/07/05 07:08:06;;;;;;;3.63;2.75;;;21.90;99.90;;;;;;5070522;28;20226;-72
2023/07/05 07:10:35;;;;;;;4.82;2.90;;;21.70;99.90;;;;;;5070387;28;20241;-72
2023/07/05 07:13:03;;;;;;;4.32;3.95;;;21.90;99.90;;;;;;5070615;28;20324;-70
2023/07/05 07:15:30;;;;;;;3.30;3.00;;;22.10;99.90;;;;;;5070309;28;20241;-71
2023/07/05 07:17:57;;;;;;;4.40;3.72;;;22.30;99.90;;;;;;5070907;28;20229;-73
2023/07/05 07:20:25;;;;;;;5.65;2.50;;;22.30;99.90;;;;;;5070468;28;20206;-70
2023/07/05 07:22:52;;;;;;;5.28;3.15;;;22.30;99.90;;;;;;5070243;28;20666;-70
2023/07/05 07:25:20;;;;;;;5.07;3.08;;;22.20;99.90;;;;;;5070383;28;20251;-72
2023/07/05 07:27:47;;;;;;;3.90;2.35;;;22.30;99.90;;;;;;5058240;28;20234;-72
2023/07/05 07:30:15;;;;;;;5.30;2.40;;;22.20;99.90;;;;;;5068236;28;20241;-73
2023/07/05 07:32:44;;;;;;;7.07;3.20;;;22.50;99.90;;;;;;5070412;28;20677;-72
2023/07/05 07:35:11;;;;;;;3.38;2.85;;;22.90;99.90;;;;;;5070181;28;20230;-73
2023/07/05 07:37:38;;;;;;;6.13;3.25;;;22.70;99.90;;;;;;5070746;28;20237;-73
2023/07/05 07:40:07;;;;;;;6.15;2.58;;;22.80;99.90;;;;;;5069701;28;20660;-71
2023/07/05 07:42:35;;;;;;;2.38;2.17;;;22.80;99.90;;;;;;5070398;28;20210;-72
2023/07/05 07:45:02;;;;;;;5.78;2.53;;;22.40;99.90;;;;;;5069438;28;20682;-70
2023/07/05 07:47:30;;;;;;;3.38;1.90;;;22.20;99.90;;;;;;5070779;28;20237;-70
2023/07/05 07:49:57;;;;;;;2.75;2.05;;;22.50;99.90;;;;;;5070692;28;20249;-72
2023/07/05 07:52:24;;;;;;;3.53;1.77;;;23.40;99.90;;;;;;5069824;28;20225;-72
2023/07/05 07:54:55;;;;;;;3.17;1.88;;;23.60;99.90;;;;;;5070445;28;20643;-72
2023/07/05 07:57:22;;;;;;;3.17;2.03;;;23.50;99.90;;;;;;5069799;28;20582;-72
2023/07/05 07:59:48;;;;;;;4.60;2.15;;;23.50;99.90;;;;;;5069860;28;20249;-73
2023/07/05 08:02:16;;;;;;;3.75;2.40;;;23.10;99.90;;;;;;5066510;28;20250;-71
2023/07/05 08:04:46;;;;;;;2.05;1.70;;;23.20;99.90;;;;;;5061885;28;20217;-72
2023/07/05 08:07:14;;;;;;;2.35;1.70;;;23.90;99.90;;;;;;5049485;28;20230;-73
2023/07/05 08:09:41;;;;;;;4.57;2.15;;;24.30;99.90;;;;;;5050024;28;20205;-71
2023/07/05 08:12:09;;;;;;;4.22;2.03;;;24.10;99.90;;;;;;5048999;28;20238;-72
2023/07/05 08:14:36;;;;;;;4.53;1.80;;;23.90;99.90;;;;;;5051221;28;20250;-73
2023/07/05 08:17:03;;;;;;;2.42;1.58;;;23.80;99.90;;;;;;5053326;28;20213;-72
2023/07/05 08:19:31;;;;;;;4.93;1.73;;;23.70;99.90;;;;;;5053303;28;20245;-71
2023/07/05 08:21:59;;;;;;;2.47;1.92;;;23.60;99.90;;;;;;5057751;28;20207;-73
2023/07/05 08:24:26;;;;;;;2.75;1.40;;;23.60;99.90;;;;;;5071713;28;20698;-72
2023/07/05 08:26:53;;;;;;;4.45;1.88;;;24.10;99.90;;;;;;5064250;28;20288;-73
2023/07/05 08:29:20;;;;;;;6.20;2.22;;;24.20;99.90;;;;;;5063925;28;20682;-73
2023/07/05 08:31:47;;;;;;;2.60;1.80;;;24.00;99.90;;;;;;5073010;28;20268;-73
2023/07/05 08:34:14;;;;;;;6.22;2.50;;;24.00;99.90;;;;;;5072573;28;20220;-73
2023/07/05 08:36:42;;;;;;;3.22;2.08;;;23.60;99.90;;;;;;5072770;28;20228;-72
2023/07/05 08:39:12;;;;;;;5.47;1.92;;;23.50;99.90;;;;;;5072658;28;20584;-72
2023/07/05 08:41:55;;;;;;;4.30;1.98;;;23.70;99.90;;;;;;5072725;28;20268;-72
2023/07/05 08:44:26;;;;;;;3.50;2.22;;;23.70;99.90;;;;;;5072841;28;20723;-73
2023/07/05 08:46:58;;;;;;;3.67;2.38;;;24.10;99.90;;;;;;5073023;28;20206;-71
2023/07/05 08:49:29;;;;;;;7.78;2.47;;;24.80;99.90;;;;;;5073130;28;20252;-73
2023/07/05 08:51:57;;;;;;;3.65;1.70;;;24.80;99.90;;;;;;5073285;28;20265;-69
2023/07/05 08:54:31;;;;;;;2.47;1.48;;;24.50;99.90;;;;;;5073022;28;20629;-70
2023/07/05 08:57:03;;;;;;;4.32;2.30;;;25.00;99.90;;;;;;5073092;28;20629;-70
2023/07/05 08:59:35;;;;;;;5.10;2.83;;;25.80;99.90;;;;;;5064861;28;20250;-69
2023/07/05 09:02:02;;;;;;;3.45;1.92;;;25.70;99.90;;;;;;5052302;28;20264;-70
2023/07/05 09:04:32;;;;;;;9.85;2.80;;;25.70;99.90;;;;;;5052720;28;20207;-69
2023/07/05 09:07:06;;;;;;;3.35;2.17;;;25.90;99.90;;;;;;5053031;28;20202;-69
2023/07/05 09:09:50;;;;;;;5.45;2.30;;;25.30;99.90;;;;;;5058984;28;20282;-69
2023/07/05 09:12:24;;;;;;;3.92;2.00;;;25.10;99.90;;;;;;5052086;28;20603;-68
2023/07/05 09:15:02;;;;;;;4.68;2.30;;;25.30;99.90;;;;;;5052413;28;20249;-69
2023/07/05 09:17:39;;;;;;;4.35;2.08;;;24.10;99.90;;;;;;5052620;28;20689;-70
2023/07/05 09:20:21;;;;;;;3.15;2.45;;;23.80;99.90;;;;;;5057516;28;20238;-70
2023/07/05 09:22:50;;;;;;;2.35;2.00;;;23.40;99.90;;;;;;5055349;28;20214;-70
2023/07/05 09:25:21;;;;;;;6.75;3.63;;;23.10;99.90;;;;;;5050914;28;20268;-70
2023/07/05 09:27:56;;;;;;;4.47;2.17;;;23.10;99.90;;;;;;5052027;28;20619;-70
2023/07/05 09:30:25;;;;;;;5.80;2.90;;;24.60;99.90;;;;;;5071695;28;20237;-70
2023/07/05 09:33:00;;;;;;;2.45;2.00;;;26.10;99.90;;;;;;5069076;28;20747;-71
2023/07/05 09:35:30;;;;;;;2.35;2.15;;;27.10;99.90;;;;;;5068067;28;20755;-71
2023/07/05 09:38:09;;;;;;;2.22;2.03;;;27.00;99.90;;;;;;5069011;28;20706;-71
2023/07/05 09:40:43;;;;;;;2.38;2.17;;;26.20;99.90;;;;;;5052209;28;20215;-70
2023/07/05 09:43:14;;;;;;;6.15;2.30;;;30.00;99.90;;;;;;5051762;28;20246;-70
2023/07/05 09:45:41;;;;;;;2.53;2.17;;;32.70;99.90;;;;;;5068852;28;20689;-70
2023/07/05 09:48:12;;;;;;;3.03;1.98;;;35.70;99.90;;;;;;5069267;28;20241;-70
2023/07/05 09:50:46;;;;;;;1.58;1.35;;;35.60;99.90;;;;;;5061128;28;20230;-70
2023/07/05 09:53:34;;;;;;;2.33;1.70;;;34.50;99.90;;;;;;5056687;28;20260;-70
2023/07/05 09:56:04;;;;;;;2.30;1.58;;;36.50;99.90;;;;;;5051965;28;20205;-71
2023/07/05 09:58:33;;;;;;;1.98;1.48;;;38.90;99.90;;;;;;5051770;28;20202;-70
2023/07/05 10:01:02;;;;;;;2.63;2.00;;;37.50;99.90;;;;;;5051791;28;20198;-71
2023/07/05 10:03:35;;;;;;;2.45;1.90;;;33.80;99.90;;;;;;5056372;28;20206;-70
2023/07/05 10:06:07;;;;;;;2.17;2.08;;;30.10;99.90;;;;;;5051443;28;20232;-72
2023/07/05 10:08:43;;;;;;;2.78;2.10;;;32.50;99.90;;;;;;5051143;28;20198;-71
2023/07/05 10:11:22;;;;;;;3.17;2.00;;;37.50;99.90;;;;;;5051008;28;20233;-71
2023/07/05 10:14:02;;;;;;;1.73;1.50;;;37.90;99.90;;;;;;5052851;28;20665;-71
2023/07/05 10:16:48;;;;;;;2.42;1.98;;;36.50;99.90;;;;;;5062677;28;20296;-71
2023/07/05 10:19:27;;;;;;;2.47;2.28;;;33.20;99.90;;;;;;5050770;28;20206;-72
2023/07/05 10:21:59;;;;;;;6.50;2.67;;;37.70;99.90;;;;;;5051354;28;20608;-71
2023/07/05 10:24:27;;;;;;;2.63;1.40;;;41.40;99.90;;;;;;5050911;28;20672;-71
2023/07/05 10:27:04;;;;;;;3.17;1.60;;;39.70;99.90;;;;;;5054479;28;20240;-70
2023/07/05 10:29:33;;;;;;;3.63;1.80;;;39.60;99.90;;;;;;5063530;28;20342;-71
2023/07/05 10:32:00;;;;;;;2.95;2.55;;;38.30;99.90;;;;;;5070940;28;20726;-71
2023/07/05 10:34:28;;;;;;;3.70;1.75;;;35.00;99.90;;;;;;5071814;28;20228;-72
2023/07/05 10:36:55;;;;;;;1.98;1.55;;;31.80;99.90;;;;;;5071020;28;20198;-71
2023/07/05 10:39:24;;;;;;;3.15;2.08;;;29.50;99.90;;;;;;5063764;28;20243;-70
2023/07/05 10:41:57;;;;;;;4.47;2.33;;;28.10;99.90;;;;;;5054915;28;20206;-70
2023/07/05 10:44:30;;;;;;;2.90;1.90;;;27.10;99.90;;;;;;5051274;28;20234;-71
2023/07/05 10:46:58;;;;;;;2.75;1.65;;;26.70;99.90;;;;;;5051163;28;20202;-72
2023/07/05 10:49:28;;;;;;;1.75;1.50;;;27.00;99.90;;;;;;5050792;28;20231;-70
2023/07/05 10:51:58;;;;;;;1.40;1.30;;;26.90;99.90;;;;;;5050639;28;20690;-72
2023/07/05 10:54:33;;;;;;;3.55;1.98;;;26.80;99.90;;;;;;5052700;28;20241;-71
2023/07/05 10:57:05;;;;;;;2.20;2.00;;;26.80;99.90;;;;;;5050618;28;20213;-72
2023/07/05 10:59:37;;;;;;;2.15;1.55;;;27.50;99.90;;;;;;5050888;28;20230;-71
2023/07/05 11:02:18;;;;;;;3.40;2.15;;;27.10;99.90;;;;;;5050279;28;20238;-70
2023/07/05 11:04:48;;;;;;;3.38;1.90;;;27.70;99.90;;;;;;5054106;28;20719;-71
2023/07/05 11:07:15;;;;;;;2.53;1.38;;;28.20;99.90;;;;;;5049788;28;20241;-71
2023/07/05 11:09:43;;;;;;;3.70;2.13;;;28.40;99.90;;;;;;5050823;28;20230;-69
2023/07/05 11:12:17;;;;;;;2.47;2.20;;;28.00;99.90;;;;;;5050039;28;20257;-70
2023/07/05 11:14:46;;;;;;;1.60;1.50;;;27.50;99.90;;;;;;5054722;28;20233;-69
2023/07/05 11:17:29;;;;;;;1.75;1.50;;;27.10;99.90;;;;;;5051875;28;20657;-70
2023/07/05 11:19:56;;;;;;;2.88;1.80;;;26.60;99.90;;;;;;5050757;28;20207;-70
2023/07/05 11:22:43;;;;;;;5.40;2.38;;;26.50;99.90;;;;;;5050066;28;20246;-71
2023/07/05 11:25:16;;;;;;;2.83;1.58;;;26.40;99.90;;;;;;5061716;28;20613;-70
2023/07/05 11:27:53;;;;;;;2.92;2.05;;;26.40;99.90;;;;;;5057225;28;20236;-71
2023/07/05 11:30:43;;;;;;;2.40;1.90;;;26.60;99.90;;;;;;5069816;28;20241;-71
2023/07/05 11:33:20;;;;;;;2.38;2.10;;;26.50;99.90;;;;;;5069694;28;20590;-70
2023/07/05 11:35:49;;;;;;;4.30;1.98;;;26.40;99.90;;;;;;5070270;28;20202;-70
2023/07/05 11:38:49;;;;;;;2.80;2.08;;;26.40;99.90;;;;;;5069838;28;20256;-69
2023/07/05 11:41:37;;;;;;;2.72;2.25;;;26.80;99.90;;;;;;5065132;28;20584;-71
2023/07/05 11:44:05;;;;;;;3.50;1.40;;;27.30;99.90;;;;;;5069780;28;20670;-71
2023/07/05 11:46:42;;;;;;;2.30;1.70;;;27.60;99.90;;;;;;5070189;28;20678;-71
2023/07/05 11:49:36;;;;;;;1.88;1.58;;;27.60;99.90;;;;;;5070477;28;20206;-71
2023/07/05 11:52:13;;;;;;;2.13;1.90;;;27.70;99.90;;;;;;5073682;28;20205;-71
2023/07/05 11:54:53;;;;;;;3.03;1.73;;;27.30;99.90;;;;;;5062222;28;20686;-71
2023/07/05 11:57:21;;;;;;;4.95;1.73;;;27.20;99.90;;;;;;5066873;28;20655;-72
2023/07/05 11:59:55;;;;;;;1.92;1.70;;;27.30;99.90;;;;;;5061706;28;20241;-71
2023/07/05 12:02:47;;;;;;;2.35;1.48;;;27.20;99.90;;;;;;5071744;28;20216;-71
2023/07/05 12:05:17;;;;;;;2.00;1.85;;;27.20;99.90;;;;;;5064756;28;20658;-71
2023/07/05 12:07:48;;;;;;;4.03;1.52;;;27.30;99.90;;;;;;5065305;28;20230;-70
2023/07/05 12:10:21;;;;;;;2.60;1.70;;;27.50;99.90;;;;;;5065509;28;20219;-71
2023/07/05 12:12:49;;;;;;;2.80;1.40;;;27.60;99.90;;;;;;5069105;28;20728;-71
2023/07/05 12:15:16;;;;;;;2.08;1.08;;;28.00;99.90;;;;;;5068425;28;20249;-70
2023/07/05 12:17:45;;;;;;;3.13;1.90;;;28.40;99.90;;;;;;5071799;28;20238;-71
2023/07/05 12:20:28;;;;;;;2.10;1.40;;;28.40;99.90;;;;;;5071623;28;20206;-71
2023/07/05 12:22:55;;;;;;;2.70;1.58;;;28.70;99.90;;;;;;5065120;28;20238;-71
2023/07/05 12:25:24;;;;;;;1.98;1.77;;;28.00;99.90;;;;;;5056571;28;21048;-71
2023/07/05 12:27:51;;;;;;;2.35;1.35;;;27.80;99.90;;;;;;5053739;28;20207;-71
2023/07/05 12:30:21;;;;;;;2.25;1.23;;;27.70;99.90;;;;;;5067137;28;20656;-71
2023/07/05 12:32:54;;;;;;;3.60;2.03;;;27.60;99.90;;;;;;5053310;28;20318;-71
2023/07/05 12:35:24;;;;;;;3.33;1.50;;;27.30;99.90;;;;;;5052593;28;20207;-71
2023/07/05 12:37:53;;;;;;;3.05;2.10;;;27.10;99.90;;;;;;5053380;28;20658;-71
2023/07/05 12:40:27;;;;;;;5.70;1.63;;;26.90;99.90;;;;;;5052739;28;20239;-70
2023/07/05 12:42:57;;;;;;;2.58;2.03;;;27.20;99.90;;;;;;5053567;28;20206;-71
2023/07/05 12:45:30;;;;;;;3.00;1.73;;;27.80;99.90;;;;;;5052488;28;20206;-71
2023/07/05 12:48:12;;;;;;;1.63;1.40;;;28.20;99.90;;;;;;5053283;28;20233;-71
2023/07/05 12:50:41;;;;;;;5.60;1.73;;;28.10;99.90;;;;;;5053001;28;20199;-72
2023/07/05 12:53:14;;;;;;;1.35;1.25;;;27.70;99.90;;;;;;5052633;28;20242;-71
2023/07/05 12:55:49;;;;;;;3.92;2.10;;;27.40;99.90;;;;;;5055800;28;20678;-70
2023/07/05 12:58:17;;;;;;;2.97;1.95;;;27.30;99.90;;;;;;5052363;28;20698;-72
2023/07/05 13:00:50;;;;;;;2.70;1.98;;;27.50;99.90;;;;;;5052515;28;20332;-72
2023/07/05 13:03:19;;;;;;;1.85;1.35;;;27.50;99.90;;;;;;5052232;28;20250;-72